KQEV

Gongju Rws

Gongju Rws, South Korea
METAR KQEV 232320Z AUTO 31001KT 9999 FEW003 M13/M24 A3039 RMK A02 TSNO
Observed Flight Rules
Jan-23 @ 23:20 UTC (16 minutes ago) Visual Flight Rules
Wind Visibility Clouds
310° at 1 knots 10,000+ meters
  • Few at 300' AGL
Temperatures Readings
Current -13°C / 9°F
Dewpoint -24°C / -11°F
Humidity 39%
Altimeter 30.39" Hg
Pressure 1029 hPa
METAR KQEV 232320Z AUTO 31001KT 9999 FEW003 M13/M24 A3039 RMK A02 TSNO
Observed Flight Rules
Jan-23 @ 23:20 UTC
(16 minutes ago)
VFR
Wind Visibility
310° at 1 knots 10,000+ meters
Clouds
  • Few at 300' AGL
Temperature Dewpoint
-13°C / 9°F -24°C / -11°F
Humidity Altimeter Pressure
39% 30.39" Hg 1029 hPa